Time;durP1;ratioP1;P1;durP2;ratioP2;P2;SDS_P1;SDS_P2;PMS_P1;PMS_P2;Temp;Humidity;BMP_temperature;BMP_pressure;BME280_temperature;BME280_humidity;BME280_pressure;Samples;Min_cycle;Max_cycle;Signal;HPM_P1;HPM_P2
2021/12/27 00:02:49;;;;;;;0.57;0.40;;;;;;;15.85;51.07;95504.28;10406087;28;20026;-20
2021/12/27 00:07:51;;;;;;;0.35;0.30;;;;;;;15.88;51.69;95518.56;10411489;28;20029;-20
2021/12/27 00:12:51;;;;;;;0.20;0.20;;;;;;;15.84;51.52;95507.66;10408391;28;20196;-20
2021/12/27 00:17:52;;;;;;;0.20;0.20;;;;;;;15.89;51.52;95510.97;10407078;28;20034;-20
2021/12/27 00:22:53;;;;;;;0.28;0.28;;;;;;;15.94;51.28;95504.19;10408190;28;20025;-20
2021/12/27 00:27:53;;;;;;;0.20;0.20;;;;;;;15.93;51.54;95512.59;10407924;28;20512;-20
2021/12/27 00:32:55;;;;;;;0.13;0.13;;;;;;;15.96;51.23;95512.56;10405561;28;20527;-20
2021/12/27 00:37:55;;;;;;;0.10;0.10;;;;;;;15.96;51.71;95512.56;10407674;28;20029;-20
2021/12/27 00:42:55;;;;;;;0.20;0.20;;;;;;;15.98;51.21;95508.38;10409713;28;20291;-21
2021/12/27 00:47:56;;;;;;;0.10;0.10;;;;;;;15.96;51.67;95502.47;10404171;28;20051;-20
2021/12/27 00:52:56;;;;;;;0.17;0.17;;;;;;;16.01;51.80;95504.94;10410011;28;20046;-20
2021/12/27 00:57:57;;;;;;;0.17;0.17;;;;;;;15.99;51.58;95481.41;10403227;28;20037;-20
2021/12/27 01:02:58;;;;;;;0.20;0.20;;;;;;;16.08;51.58;95481.31;10410021;28;20299;-21
2021/12/27 01:07:59;;;;;;;0.10;0.10;;;;;;;16.07;51.36;95480.50;10409955;28;20145;-20
2021/12/27 01:18:06;;;;;;;0.30;0.10;;;;;;;16.04;51.77;95490.63;10403088;28;20036;-20
2021/12/27 01:23:07;;;;;;;0.20;0.20;;;;;;;16.05;51.44;95487.25;10407629;28;20126;-20
2021/12/27 01:28:08;;;;;;;0.20;0.17;;;;;;;16.06;51.84;95483.88;10404443;28;20037;-20
2021/12/27 01:33:08;;;;;;;0.20;0.20;;;;;;;16.07;51.76;95487.22;10402554;28;20484;-20
2021/12/27 01:38:11;;;;;;;0.22;0.22;;;;;;;16.09;51.46;95486.38;10407254;28;20037;-20
2021/12/27 01:43:22;;;;;;;0.20;0.20;;;;;;;16.04;51.48;95474.66;10406245;28;20136;-20
2021/12/27 01:48:28;;;;;;;0.10;0.10;;;;;;;16.07;51.26;95480.50;10395535;28;20029;-20
2021/12/27 01:53:32;;;;;;;0.20;0.20;;;;;;;16.06;51.78;95486.41;10408207;28;20083;-19
2021/12/27 01:58:33;;;;;;;0.08;0.08;;;;;;;16.05;51.45;95476.31;10406828;28;20038;-20
2021/12/27 02:03:34;;;;;;;0.20;0.20;;;;;;;16.07;51.68;95472.94;10407740;28;20470;-20
2021/12/27 02:08:38;;;;;;;0.08;0.08;;;;;;;16.15;51.36;95475.38;10407727;28;20033;-20
2021/12/27 02:13:42;;;;;;;0.10;0.10;;;;;;;16.16;51.54;95474.50;10402570;28;20041;-20
2021/12/27 02:18:44;;;;;;;0.10;0.10;;;;;;;16.12;51.64;95468.66;10398978;28;20033;-20
2021/12/27 02:23:44;;;;;;;0.20;0.10;;;;;;;16.11;51.67;95466.97;10406956;28;20045;-20
2021/12/27 02:28:46;;;;;;;0.25;0.20;;;;;;;16.11;51.59;95456.88;10403654;28;20036;-20
2021/12/27 02:33:47;;;;;;;0.10;0.10;;;;;;;16.10;51.58;95451.88;10398205;28;20037;-20
2021/12/27 02:38:47;;;;;;;0.28;0.28;;;;;;;16.12;51.47;95450.16;10407403;28;20036;-20
2021/12/27 02:43:49;;;;;;;0.20;0.20;;;;;;;16.12;51.42;95447.63;10403940;28;20037;-19
2021/12/27 02:48:49;;;;;;;0.28;0.20;;;;;;;16.12;51.88;95442.59;10401284;28;20044;-19
2021/12/27 02:53:50;;;;;;;0.28;0.28;;;;;;;16.13;51.48;95440.03;10405998;28;20618;-20
2021/12/27 02:58:51;;;;;;;0.10;0.10;;;;;;;16.10;51.76;95449.34;10403393;28;20036;-21
2021/12/27 03:03:51;;;;;;;0.20;0.20;;;;;;;16.10;51.61;95447.66;10403825;28;20519;-20
2021/12/27 03:08:52;;;;;;;0.10;0.10;;;;;;;16.11;51.91;95446.78;10406138;28;20039;-20
2021/12/27 03:13:52;;;;;;;0.28;0.20;;;;;;;16.15;51.78;95448.44;10409429;28;20025;-20
2021/12/27 03:18:54;;;;;;;0.10;0.10;;;;;;;16.22;51.51;95445.00;10406257;28;20037;-20
2021/12/27 03:23:54;;;;;;;0.10;0.10;;;;;;;16.21;51.42;95433.19;10414090;28;20041;-21
2021/12/27 03:28:55;;;;;;;0.10;0.10;;;;;;;16.18;51.50;95428.19;10411414;28;20120;-20
2021/12/27 03:33:57;;;;;;;0.20;0.20;;;;;;;16.16;51.74;95417.28;10405418;28;20033;-20
2021/12/27 03:38:57;;;;;;;0.10;0.10;;;;;;;16.17;51.80;95411.38;10413689;28;20051;-20
2021/12/27 03:43:57;;;;;;;0.20;0.20;;;;;;;16.15;51.35;95408.03;10410031;28;20415;-20
2021/12/27 03:48:58;;;;;;;0.20;0.10;;;;;;;16.15;51.62;95415.63;10407514;28;20304;-20
2021/12/27 03:53:59;;;;;;;0.20;0.20;;;;;;;16.18;51.60;95397.91;10413187;28;20037;-20
2021/12/27 03:59:19;;;;;;;0.20;0.10;;;;;;;16.18;51.72;95400.44;10405128;28;20124;-20
2021/12/27 04:04:19;;;;;;;0.22;0.20;;;;;;;16.19;51.87;95394.53;10409677;28;20132;-20
2021/12/27 04:09:20;;;;;;;0.10;0.10;;;;;;;16.17;51.57;95386.13;10412280;28;20120;-21
2021/12/27 04:14:21;;;;;;;0.10;0.10;;;;;;;16.18;51.91;95377.69;10410845;28;20037;-20
2021/12/27 04:19:22;;;;;;;0.15;0.10;;;;;;;16.19;51.68;95381.06;10395763;28;20392;-20
2021/12/27 04:24:22;;;;;;;0.10;0.10;;;;;;;16.23;51.56;95378.50;10411653;28;20067;-20
2021/12/27 04:29:22;;;;;;;0.10;0.10;;;;;;;16.29;51.35;95375.06;10411188;28;20041;-20
2021/12/27 04:34:23;;;;;;;0.10;0.10;;;;;;;16.23;51.82;95370.91;10402863;28;20030;-21
2021/12/27 04:39:23;;;;;;;0.10;0.10;;;;;;;16.26;51.60;95372.53;10411960;28;20295;-20
2021/12/27 04:44:24;;;;;;;0.17;0.10;;;;;;;16.27;51.23;95380.13;10405871;28;20553;-20
2021/12/27 04:49:24;;;;;;;0.10;0.10;;;;;;;16.35;51.30;95387.59;10405155;28;20299;-20
2021/12/27 04:54:24;;;;;;;0.28;0.28;;;;;;;16.39;51.46;95382.53;10410899;28;20529;-20
2021/12/27 04:59:25;;;;;;;0.10;0.10;;;;;;;16.37;51.29;95384.22;10408408;28;20057;-20
2021/12/27 05:04:25;;;;;;;0.20;0.10;;;;;;;16.38;51.32;95377.50;10407980;28;20032;-20
2021/12/27 05:09:26;;;;;;;0.15;0.15;;;;;;;16.36;51.66;95372.41;10409980;28;20136;-20
2021/12/27 05:14:26;;;;;;;0.10;0.10;;;;;;;16.37;51.77;95369.06;10404714;28;20041;-20
2021/12/27 05:19:26;;;;;;;0.13;0.10;;;;;;;16.35;51.75;95374.97;10401480;28;20040;-20
2021/12/27 05:24:28;;;;;;;0.10;0.10;;;;;;;16.39;51.85;95366.53;10409204;28;20419;-20
2021/12/27 05:29:28;;;;;;;0.10;0.10;;;;;;;16.35;51.88;95354.78;10405553;28;20500;-20
2021/12/27 05:34:29;;;;;;;0.00;0.00;;;;;;;16.51;51.65;95352.03;10399830;28;20041;-20
2021/12/27 05:39:30;;;;;;;0.10;0.10;;;;;;;16.47;51.51;95352.94;10409004;28;20033;-20
2021/12/27 05:44:30;;;;;;;0.00;0.00;;;;;;;16.34;52.05;95348.88;10407469;28;20107;-20
2021/12/27 05:49:31;;;;;;;0.20;0.20;;;;;;;16.33;52.04;95352.25;10403450;28;20443;-20
2021/12/27 05:54:31;;;;;;;0.10;0.10;;;;;;;16.31;52.27;95331.25;10408614;28;20044;-20
2021/12/27 05:59:31;;;;;;;0.10;0.10;;;;;;;16.27;51.80;95326.25;10406917;28;20778;-20
2021/12/27 06:04:32;;;;;;;0.00;0.00;;;;;;;16.28;52.36;95318.66;10405920;28;20487;-20
2021/12/27 06:09:32;;;;;;;0.17;0.17;;;;;;;16.31;52.11;95310.19;10408171;28;20043;-20
2021/12/27 06:14:32;;;;;;;0.10;0.10;;;;;;;16.30;52.35;95314.41;10402962;28;20116;-20
2021/12/27 06:19:33;;;;;;;0.10;0.10;;;;;;;16.29;52.11;95305.16;10398685;28;20029;-20
2021/12/27 06:24:33;;;;;;;0.10;0.10;;;;;;;16.32;51.98;95310.19;10407086;28;20064;-19
2021/12/27 06:29:34;;;;;;;1.67;0.30;;;;;;;16.34;51.92;95300.91;10404354;28;20515;-20
2021/12/27 06:34:34;;;;;;;4.10;0.10;;;;;;;16.38;52.04;95299.19;10398292;28;20303;-20
2021/12/27 06:39:35;;;;;;;0.57;0.10;;;;;;;16.51;52.04;95299.00;10406988;28;20285;-20
2021/12/27 06:44:35;;;;;;;2.92;0.28;;;;;;;16.63;51.67;95308.91;10403301;28;20044;-20
2021/12/27 06:49:37;;;;;;;11.65;1.70;;;;;;;16.40;50.83;95300.84;10398758;28;20132;-20
2021/12/27 06:54:40;;;;;;;3.70;0.30;;;;;;;16.40;51.25;95284.84;10405272;28;20518;-20
2021/12/27 06:59:40;;;;;;;10.23;0.30;;;;;;;16.43;52.01;95282.25;10403308;28;20030;-20
2021/12/27 07:04:41;;;;;;;0.20;0.10;;;;;;;16.43;51.75;95287.31;10403471;28;20040;-20
2021/12/27 07:09:41;;;;;;;2.58;0.20;;;;;;;16.42;51.74;95275.53;10406370;28;20749;-20
2021/12/27 07:14:42;;;;;;;0.50;0.23;;;;;;;16.39;51.93;95276.47;10402561;28;20037;-20
2021/12/27 07:19:42;;;;;;;0.20;0.10;;;;;;;16.37;52.02;95293.28;10397707;28;20284;-20
2021/12/27 07:24:43;;;;;;;0.83;0.20;;;;;;;16.36;51.95;95290.78;10405538;28;20478;-20
2021/12/27 07:29:43;;;;;;;0.20;0.10;;;;;;;16.28;51.92;95285.81;10401858;28;20319;-20
2021/12/27 07:34:44;;;;;;;0.30;0.20;;;;;;;16.32;51.96;95291.66;10397436;28;20083;-20
2021/12/27 07:39:45;;;;;;;1.95;0.20;;;;;;;16.36;52.07;95293.31;10405826;28;20284;-20
2021/12/27 07:44:45;;;;;;;0.35;0.35;;;;;;;16.32;51.95;95287.47;10402582;28;20510;-20
2021/12/27 07:49:46;;;;;;;0.10;0.10;;;;;;;16.42;51.98;95301.66;10400455;28;20033;-20
2021/12/27 07:54:46;;;;;;;0.60;0.10;;;;;;;16.38;51.79;95294.16;10406016;28;20403;-20
2021/12/27 07:59:50;;;;;;;0.10;0.10;;;;;;;16.36;52.03;95301.69;10406197;28;20512;-20
2021/12/27 08:04:50;;;;;;;0.30;0.13;;;;;;;16.38;51.51;95289.91;10410460;28;20041;-20
2021/12/27 08:09:50;;;;;;;0.40;0.10;;;;;;;16.37;51.75;95288.25;10412474;28;20033;-20
2021/12/27 08:14:51;;;;;;;0.63;0.25;;;;;;;16.37;52.23;95295.00;10410928;28;20036;-20
2021/12/27 08:19:51;;;;;;;0.30;0.10;;;;;;;16.36;52.06;95276.44;10403931;28;20396;-20
2021/12/27 08:24:52;;;;;;;0.45;0.10;;;;;;;16.38;52.09;95279.81;10411968;28;20471;-20
2021/12/27 08:29:53;;;;;;;0.35;0.10;;;;;;;16.36;51.83;95271.41;10407632;28;20037;-20
2021/12/27 08:34:53;;;;;;;0.10;0.10;;;;;;;16.40;52.30;95273.06;10403492;28;20040;-20
2021/12/27 08:39:54;;;;;;;0.10;0.10;;;;;;;16.40;51.96;95272.22;10411844;28;20029;-20
2021/12/27 08:44:54;;;;;;;0.10;0.10;;;;;;;16.38;51.77;95269.72;10410681;28;20431;-20
2021/12/27 08:49:55;;;;;;;0.10;0.10;;;;;;;16.46;51.99;95270.44;10405592;28;20291;-20
2021/12/27 08:54:57;;;;;;;0.20;0.20;;;;;;;16.63;51.63;95263.41;10411167;28;20044;-20
2021/12/27 08:59:57;;;;;;;0.22;0.10;;;;;;;16.46;51.59;95257.78;10406865;28;20043;-20
2021/12/27 09:04:57;;;;;;;0.10;0.10;;;;;;;16.43;52.10;95252.81;10408191;28;20044;-20
2021/12/27 09:09:58;;;;;;;0.30;0.10;;;;;;;16.38;51.91;95244.44;10409491;28;20415;-20
2021/12/27 09:14:59;;;;;;;0.20;0.10;;;;;;;16.42;51.89;95241.03;10404171;28;20296;-20
2021/12/27 09:19:59;;;;;;;0.10;0.10;;;;;;;16.43;51.56;95237.66;10401458;28;20034;-20
2021/12/27 09:25:00;;;;;;;0.10;0.10;;;;;;;16.43;52.09;95232.59;10409985;28;20079;-20
2021/12/27 09:30:00;;;;;;;0.10;0.10;;;;;;;16.40;51.89;95232.66;10406894;28;20488;-20
2021/12/27 09:35:02;;;;;;;0.38;0.10;;;;;;;16.41;51.91;95224.22;10401041;28;20041;-20
2021/12/27 09:40:03;;;;;;;0.13;0.10;;;;;;;16.41;52.19;95220.84;10409093;28;20033;-20
2021/12/27 09:45:05;;;;;;;0.60;0.10;;;;;;;16.41;52.39;95216.66;10407412;28;20049;-20
2021/12/27 09:50:08;;;;;;;0.50;0.10;;;;;;;16.42;52.21;95205.69;10402839;28;20037;-20
2021/12/27 09:55:11;;;;;;;0.10;0.10;;;;;;;16.58;52.19;95204.56;10407966;28;20056;-20
2021/12/27 10:00:12;;;;;;;0.40;0.20;;;;;;;16.62;51.69;95196.06;10404192;28;20113;-20
2021/12/27 10:05:13;;;;;;;0.20;0.20;;;;;;;16.52;52.07;95198.78;10405456;28;20055;-20
2021/12/27 10:10:13;;;;;;;0.25;0.20;;;;;;;16.46;52.09;95187.06;10407775;28;20041;-20
2021/12/27 10:15:22;;;;;;;0.20;0.10;;;;;;;16.45;52.01;95185.41;10406089;28;20041;-20
2021/12/27 10:20:28;;;;;;;0.10;0.10;;;;;;;16.41;52.10;95176.25;10399482;28;20182;-20
2021/12/27 10:25:29;;;;;;;0.55;0.28;;;;;;;16.44;52.07;95178.69;10407510;28;20033;-20
2021/12/27 10:30:35;;;;;;;0.77;0.20;;;;;;;16.44;52.35;95171.13;10404259;28;20041;-20
2021/12/27 10:35:45;;;;;;;0.68;0.32;;;;;;;16.45;51.91;95165.22;10398483;28;20419;-20
2021/12/27 10:40:55;;;;;;;0.55;0.30;;;;;;;16.44;52.29;95163.53;10405914;28;20036;-20
2021/12/27 10:46:01;;;;;;;0.43;0.40;;;;;;;16.50;52.25;95155.03;10403419;28;20084;-20
2021/12/27 10:51:02;;;;;;;0.20;0.20;;;;;;;16.53;52.16;95155.81;10401944;28;20037;-20
2021/12/27 10:56:03;;;;;;;0.30;0.30;;;;;;;16.56;52.15;95168.41;10405922;28;20064;-20
2021/12/27 11:01:09;;;;;;;0.85;0.40;;;;;;;16.69;51.56;95143.75;10402404;28;20026;-20
2021/12/27 11:06:13;;;;;;;0.20;0.17;;;;;;;16.77;51.55;95162.16;10403913;28;20041;-20
2021/12/27 11:11:15;;;;;;;0.30;0.30;;;;;;;16.64;52.26;95171.63;10405902;28;20586;-20
2021/12/27 11:16:15;;;;;;;0.20;0.20;;;;;;;16.47;52.13;95153.41;10405940;28;20033;-20
2021/12/27 11:21:19;;;;;;;0.10;0.10;;;;;;;16.49;52.23;95160.94;10398238;28;20056;-20
2021/12/27 11:26:25;;;;;;;0.20;0.20;;;;;;;16.58;52.32;95170.88;10404398;28;20675;-20
2021/12/27 11:31:28;;;;;;;1.03;0.20;;;;;;;16.53;52.45;95165.91;10402101;28;20051;-20
2021/12/27 11:36:40;;;;;;;0.40;0.28;;;;;;;16.58;52.33;95160.78;10395987;28;20379;-20
2021/12/27 11:41:41;;;;;;;6.90;0.47;;;;;;;16.55;51.92;95146.50;10408856;28;20091;-20
2021/12/27 11:46:48;;;;;;;2.80;0.20;;;;;;;16.43;52.77;95141.69;10407896;28;20730;-20
2021/12/27 11:51:49;;;;;;;2.08;0.22;;;;;;;16.52;52.61;95151.63;10407724;28;20516;-20
2021/12/27 11:56:49;;;;;;;0.88;0.30;;;;;;;16.52;52.76;95151.63;10410415;28;20033;-20
2021/12/27 12:01:54;;;;;;;0.73;0.28;;;;;;;16.60;52.52;95154.84;10413190;28;20041;-20
2021/12/27 12:06:55;;;;;;;0.13;0.13;;;;;;;16.68;52.63;95158.06;10410316;28;20091;-21
2021/12/27 12:12:01;;;;;;;2.03;0.40;;;;;;;16.59;52.69;95163.28;10408208;28;20587;-21
2021/12/27 12:17:09;;;;;;;1.17;0.20;;;;;;;16.55;52.40;95159.13;10412404;28;20029;-21
2021/12/27 12:22:42;;;;;;;0.30;0.20;;;;;;;16.55;52.98;95161.66;10404002;28;20037;-21
2021/12/27 12:27:59;;;;;;;1.30;0.30;;;;;;;16.54;53.09;95157.47;10401141;28;20045;-20
2021/12/27 12:33:10;;;;;;;0.40;0.20;;;;;;;16.49;53.11;95161.78;10405820;28;20038;-20
2021/12/27 12:38:27;;;;;;;0.30;0.30;;;;;;;16.48;53.13;95157.59;10410310;28;20040;-21
2021/12/27 12:43:31;;;;;;;1.00;0.20;;;;;;;16.46;53.67;95156.78;10404088;28;20040;-20
2021/12/27 12:48:32;;;;;;;0.55;0.20;;;;;;;16.47;53.37;95158.47;10405989;28;20041;-20
2021/12/27 12:53:33;;;;;;;0.83;0.33;;;;;;;16.43;53.30;95154.31;10410697;28;20518;-19
2021/12/27 12:58:36;;;;;;;0.55;0.28;;;;;;;16.43;53.35;95151.78;10408685;28;20038;-20
2021/12/27 13:03:37;;;;;;;0.50;0.30;;;;;;;16.57;53.14;95144.81;10408021;28;20037;-20
2021/12/27 13:08:38;;;;;;;0.45;0.30;;;;;;;16.61;53.16;95151.47;10410423;28;20029;-20
2021/12/27 13:13:38;;;;;;;0.40;0.30;;;;;;;16.59;53.01;95148.13;10406630;28;20487;-21
2021/12/27 13:18:38;;;;;;;0.50;0.23;;;;;;;16.54;53.56;95160.00;10401723;28;20400;-20
2021/12/27 13:23:40;;;;;;;0.10;0.10;;;;;;;16.49;53.64;95155.88;10409577;28;20048;-20
2021/12/27 13:28:45;;;;;;;0.73;0.10;;;;;;;16.53;53.46;95152.47;10408728;28;20675;-20
2021/12/27 13:33:51;;;;;;;0.30;0.15;;;;;;;16.53;53.52;95133.06;10401241;28;20499;-19
2021/12/27 13:39:16;;;;;;;0.68;0.20;;;;;;;16.51;53.33;95119.66;10409182;28;20037;-20
2021/12/27 13:44:42;;;;;;;0.25;0.20;;;;;;;16.51;53.54;95109.53;10408036;28;20500;-20
2021/12/27 13:49:57;;;;;;;0.20;0.20;;;;;;;16.47;53.78;95107.09;10402913;28;20087;-20
2021/12/27 13:54:58;;;;;;;0.10;0.10;;;;;;;16.48;53.52;95122.25;10408175;28;20037;-20
2021/12/27 13:59:59;;;;;;;0.32;0.20;;;;;;;16.50;53.53;95122.19;10401776;28;20037;-22
2021/12/27 14:05:00;;;;;;;0.15;0.10;;;;;;;16.54;53.58;95129.69;10406157;28;20030;-21
2021/12/27 14:10:00;;;;;;;0.15;0.15;;;;;;;16.62;52.99;95102.59;10408190;28;20488;-21
2021/12/27 14:15:05;;;;;;;0.45;0.20;;;;;;;16.73;52.84;95136.09;10405072;28;20039;-21
2021/12/27 14:20:07;;;;;;;0.20;0.20;;;;;;;16.63;53.15;95139.63;10399561;28;20025;-21
2021/12/27 14:25:10;;;;;;;0.20;0.20;;;;;;;16.63;53.13;95139.63;10407163;28;20044;-21
2021/12/27 14:30:18;;;;;;;0.20;0.17;;;;;;;16.60;53.44;95139.69;10401365;28;20045;-20
2021/12/27 14:35:24;;;;;;;0.10;0.10;;;;;;;16.59;53.11;95138.03;10399122;28;20037;-21
2021/12/27 14:40:25;;;;;;;0.10;0.10;;;;;;;16.56;53.27;95143.16;10398834;28;20036;-21
2021/12/27 14:45:27;;;;;;;0.35;0.20;;;;;;;16.58;53.41;95141.41;10399049;28;20428;-21
2021/12/27 14:50:29;;;;;;;0.20;0.20;;;;;;;16.57;53.50;95159.97;10400972;28;20499;-20
2021/12/27 14:55:30;;;;;;;0.17;0.17;;;;;;;16.57;53.20;95159.13;10406329;28;20083;-21
2021/12/27 15:00:35;;;;;;;0.30;0.30;;;;;;;16.60;53.26;95170.00;10405477;28;20029;-21
2021/12/27 15:05:35;;;;;;;0.10;0.10;;;;;;;16.61;53.42;95183.50;10403294;28;20287;-21
2021/12/27 15:10:36;;;;;;;0.20;0.20;;;;;;;16.70;52.93;95180.78;10405317;28;20488;-21
2021/12/27 15:15:36;;;;;;;0.55;0.15;;;;;;;16.75;52.93;95168.03;10403111;28;20300;-21
2021/12/27 15:20:38;;;;;;;0.27;0.17;;;;;;;16.65;52.98;95168.25;10398043;28;20042;-21
2021/12/27 15:25:38;;;;;;;0.10;0.10;;;;;;;16.64;53.25;95176.69;10405010;28;20292;-21
2021/12/27 15:30:39;;;;;;;0.50;0.30;;;;;;;16.60;53.28;95189.41;10400426;28;20454;-20
2021/12/27 15:35:39;;;;;;;0.40;0.20;;;;;;;16.60;53.38;95187.69;10396972;28;20033;-20
2021/12/27 15:40:40;;;;;;;0.10;0.10;;;;;;;16.56;53.45;95177.66;10405928;28;20030;-20
2021/12/27 15:45:40;;;;;;;0.10;0.10;;;;;;;16.59;53.54;95178.44;10399425;28;21320;-21
2021/12/27 15:50:42;;;;;;;0.43;0.13;;;;;;;16.60;53.57;95185.16;10399892;28;20045;-21
2021/12/27 15:55:42;;;;;;;0.30;0.10;;;;;;;16.58;53.50;95171.72;10404581;28;20103;-21
2021/12/27 16:00:43;;;;;;;0.15;0.10;;;;;;;16.62;53.22;95178.38;10402168;28;20511;-21
2021/12/27 16:05:43;;;;;;;0.20;0.10;;;;;;;16.66;53.41;95174.97;10402659;28;20041;-21
2021/12/27 16:10:44;;;;;;;0.20;0.10;;;;;;;16.68;53.03;95170.72;10404961;28;20114;-21
2021/12/27 16:15:46;;;;;;;0.30;0.20;;;;;;;16.80;52.70;95170.47;10396570;28;20030;-21
2021/12/27 16:20:46;;;;;;;0.32;0.20;;;;;;;16.77;53.27;95165.50;10401669;28;20164;-21
2021/12/27 16:25:47;;;;;;;0.10;0.10;;;;;;;16.61;52.98;95146.41;10412081;28;20029;-21
2021/12/27 16:30:49;;;;;;;0.08;0.00;;;;;;;16.69;53.29;95184.19;10407431;28;20029;-21
2021/12/27 16:35:50;;;;;;;0.20;0.20;;;;;;;16.65;53.29;95193.50;10403383;28;20036;-20
2021/12/27 16:40:51;;;;;;;0.03;0.03;;;;;;;16.71;53.18;95190.03;10411395;28;20041;-20
2021/12/27 16:45:51;;;;;;;0.17;0.15;;;;;;;16.70;53.31;95185.84;10407393;28;20576;-20
2021/12/27 16:50:55;;;;;;;0.10;0.10;;;;;;;16.78;53.07;95207.59;10405927;28;20041;-21
2021/12/27 16:55:56;;;;;;;0.13;0.13;;;;;;;16.85;52.69;95197.34;10408137;28;20036;-20
2021/12/27 17:00:57;;;;;;;0.28;0.20;;;;;;;16.82;52.90;95199.09;10410906;28;20279;-20
2021/12/27 17:05:57;;;;;;;0.10;0.10;;;;;;;16.77;53.05;95205.91;10407513;28;20033;-21
2021/12/27 17:10:58;;;;;;;0.10;0.10;;;;;;;16.78;52.89;95212.63;10408374;28;20151;-21
2021/12/27 17:15:58;;;;;;;0.30;0.20;;;;;;;16.92;52.79;95228.41;10409850;28;20358;-21
2021/12/27 17:20:59;;;;;;;0.10;0.10;;;;;;;16.96;53.07;95218.22;10402010;28;20038;-20
2021/12/27 17:26:00;;;;;;;0.10;0.10;;;;;;;16.91;53.03;95227.56;10409936;28;20367;-21
2021/12/27 17:31:00;;;;;;;0.68;0.30;;;;;;;16.89;52.98;95236.06;10407159;28;20041;-21
2021/12/27 17:36:03;;;;;;;0.00;0.00;;;;;;;16.84;52.97;95230.22;10401351;28;20068;-20
2021/12/27 17:41:04;;;;;;;0.10;0.10;;;;;;;16.83;53.37;95228.56;10408994;28;20773;-20
2021/12/27 17:46:04;;;;;;;0.98;0.20;;;;;;;16.81;53.71;95242.94;10408295;28;20041;-21
2021/12/27 17:51:05;;;;;;;0.20;0.10;;;;;;;16.82;53.26;95242.06;10403493;28;20630;-20
2021/12/27 17:56:05;;;;;;;0.17;0.17;;;;;;;16.83;53.61;95253.84;10408104;28;20056;-21
2021/12/27 18:01:07;;;;;;;0.17;0.10;;;;;;;16.73;53.39;95256.53;10407066;28;20040;-21
2021/12/27 18:06:08;;;;;;;0.75;0.20;;;;;;;16.77;53.72;95264.88;10406068;28;20389;-20
2021/12/27 18:11:08;;;;;;;0.20;0.20;;;;;;;16.77;53.77;95280.91;10405164;28;20048;-21
2021/12/27 18:16:09;;;;;;;0.10;0.10;;;;;;;16.87;53.29;95275.66;10407586;28;20040;-21
2021/12/27 18:21:09;;;;;;;0.13;0.13;;;;;;;16.97;53.10;95283.06;10399839;28;20052;-20
2021/12/27 18:26:10;;;;;;;0.45;0.20;;;;;;;16.88;53.36;95297.53;10405661;28;20284;-21
2021/12/27 18:31:10;;;;;;;0.15;0.10;;;;;;;16.81;53.90;95288.41;10405448;28;20045;-21
2021/12/27 18:36:11;;;;;;;0.10;0.10;;;;;;;16.80;53.82;95300.22;10399249;28;20045;-21
2021/12/27 18:41:11;;;;;;;1.03;0.20;;;;;;;16.86;53.69;95289.16;10402047;28;20021;-21
2021/12/27 18:46:12;;;;;;;8.05;0.55;;;;;;;16.88;54.14;95283.22;10395856;28;20032;-20
2021/12/27 18:51:12;;;;;;;2.78;0.25;;;;;;;16.88;53.49;95292.50;10390148;28;20033;-21
2021/12/27 18:56:13;;;;;;;0.73;0.30;;;;;;;16.87;53.75;95301.78;10392390;28;20072;-21
2021/12/27 19:01:14;;;;;;;0.65;0.20;;;;;;;16.88;54.00;95303.44;10390259;28;20040;-22
2021/12/27 19:06:15;;;;;;;1.90;0.20;;;;;;;16.88;53.95;95305.13;10397559;28;20025;-21
2021/12/27 19:11:16;;;;;;;4.47;0.40;;;;;;;16.84;54.11;95306.06;10403366;28;20026;-22
2021/12/27 19:16:18;;;;;;;2.08;0.20;;;;;;;16.85;54.37;95322.88;10404652;28;20458;-22
2021/12/27 19:21:19;;;;;;;4.03;0.63;;;;;;;16.81;54.12;95318.75;10397425;28;20108;-21
2021/12/27 19:26:22;;;;;;;0.50;0.20;;;;;;;16.82;54.19;95328.00;10405432;28;20108;-21
2021/12/27 19:31:23;;;;;;;1.33;0.55;;;;;;;16.88;54.40;95338.84;10399830;28;20111;-22
2021/12/27 19:36:23;;;;;;;2.58;0.20;;;;;;;16.86;54.41;95340.56;10396264;28;20125;-22
2021/12/27 19:41:25;;;;;;;1.70;0.20;;;;;;;16.85;54.10;95336.38;10404792;28;20044;-22
2021/12/27 19:46:25;;;;;;;3.92;0.40;;;;;;;16.85;54.20;95343.09;10402639;28;20175;-22
2021/12/27 19:51:26;;;;;;;0.50;0.20;;;;;;;16.88;54.02;95340.50;10398832;28;20163;-22
2021/12/27 19:56:26;;;;;;;0.95;0.30;;;;;;;16.82;54.17;95322.94;10406794;28;20025;-22
2021/12/27 20:01:27;;;;;;;0.28;0.10;;;;;;;16.88;54.40;95327.88;10410086;28;20026;-22
2021/12/27 20:06:28;;;;;;;0.20;0.20;;;;;;;16.86;54.23;95337.19;10410232;28;20032;-20
2021/12/27 20:11:29;;;;;;;0.57;0.20;;;;;;;16.91;53.93;95337.97;10403661;28;20036;-20
2021/12/27 20:16:29;;;;;;;0.93;0.20;;;;;;;16.87;54.25;95348.97;10411399;28;20051;-19
2021/12/27 20:21:30;;;;;;;0.73;0.30;;;;;;;16.88;54.42;95358.19;10404383;28;20044;-20
2021/12/27 20:26:30;;;;;;;0.77;0.15;;;;;;;16.91;54.12;95353.13;10402999;28;20492;-20
2021/12/27 20:31:32;;;;;;;2.53;1.13;;;;;;;16.93;54.15;95348.88;10411368;28;20032;-20
2021/12/27 20:36:33;;;;;;;0.60;0.20;;;;;;;16.94;54.32;95360.66;10404000;28;20021;-20
2021/12/27 20:41:34;;;;;;;0.20;0.20;;;;;;;16.93;54.11;95366.56;10410340;28;20029;-20
2021/12/27 20:46:34;;;;;;;0.20;0.10;;;;;;;16.93;54.59;95369.94;10410400;28;20403;-19
2021/12/27 20:51:35;;;;;;;1.80;0.43;;;;;;;16.94;54.37;95368.22;10405005;28;20179;-20
2021/12/27 20:56:35;;;;;;;0.40;0.17;;;;;;;16.93;54.30;95379.19;10410116;28;20292;-20
2021/12/27 21:01:36;;;;;;;0.55;0.25;;;;;;;16.94;54.58;95378.34;10406167;28;20463;-20
2021/12/27 21:06:38;;;;;;;0.43;0.10;;;;;;;16.95;54.14;95377.47;10407572;28;20175;-20
2021/12/27 21:11:39;;;;;;;0.70;0.20;;;;;;;16.95;54.05;95380.84;10407206;28;20123;-19
2021/12/27 21:16:39;;;;;;;0.70;0.30;;;;;;;16.97;54.25;95376.59;10409780;28;20146;-20
2021/12/27 21:21:40;;;;;;;0.80;0.13;;;;;;;16.95;54.49;95380.84;10402478;28;20119;-20
2021/12/27 21:26:41;;;;;;;0.15;0.10;;;;;;;16.88;54.21;95369.16;10406184;28;20283;-20
2021/12/27 21:31:41;;;;;;;0.35;0.25;;;;;;;17.02;53.88;95379.06;10407185;28;20391;-20
2021/12/27 21:36:42;;;;;;;0.87;0.10;;;;;;;16.98;54.18;95374.94;10401927;28;20036;-20
2021/12/27 21:41:42;;;;;;;1.13;0.30;;;;;;;16.98;54.31;95364.81;10405132;28;20430;-20
2021/12/27 21:46:44;;;;;;;0.27;0.20;;;;;;;16.97;54.30;95363.13;10407344;28;20041;-20
2021/12/27 21:51:44;;;;;;;0.03;0.03;;;;;;;16.97;54.52;95373.22;10402665;28;20662;-19
2021/12/27 21:56:45;;;;;;;0.00;0.00;;;;;;;16.93;54.57;95367.41;10407213;28;20040;-20
2021/12/27 22:01:46;;;;;;;0.27;0.10;;;;;;;16.94;54.58;95361.50;10407152;28;20103;-20
2021/12/27 22:06:46;;;;;;;2.03;0.30;;;;;;;16.93;54.64;95361.50;10403462;28;20619;-19
2021/12/27 22:11:46;;;;;;;0.28;0.20;;;;;;;16.94;54.77;95365.69;10403854;28;20037;-20
2021/12/27 22:16:47;;;;;;;0.47;0.20;;;;;;;16.94;54.59;95358.13;10397635;28;20033;-20
2021/12/27 22:21:47;;;;;;;0.20;0.13;;;;;;;16.94;54.46;95358.97;10399381;28;20043;-20
2021/12/27 22:26:48;;;;;;;0.22;0.20;;;;;;;16.92;54.39;95352.25;10401937;28;20029;-19
2021/12/27 22:31:48;;;;;;;0.57;0.20;;;;;;;16.99;54.30;95358.91;10397896;28;20021;-19
2021/12/27 22:36:49;;;;;;;0.27;0.10;;;;;;;16.98;54.31;95347.94;10398530;28;20118;-20
2021/12/27 22:41:49;;;;;;;0.20;0.17;;;;;;;16.96;54.09;95337.03;10393413;28;20029;-20
2021/12/27 22:46:50;;;;;;;0.10;0.10;;;;;;;16.98;54.81;95339.53;10403878;28;20044;-19
2021/12/27 22:51:50;;;;;;;1.03;0.10;;;;;;;17.00;54.66;95340.34;10396572;28;20460;-20
2021/12/27 22:56:50;;;;;;;0.83;0.20;;;;;;;16.99;54.82;95339.47;10404147;28;20038;-19
2021/12/27 23:01:51;;;;;;;1.03;0.20;;;;;;;16.99;54.65;95341.19;10397826;28;20037;-19
2021/12/27 23:06:52;;;;;;;1.10;0.20;;;;;;;16.98;54.77;95339.53;10394390;28;20040;-20
2021/12/27 23:11:54;;;;;;;0.43;0.10;;;;;;;17.00;54.71;95341.16;10400756;28;20132;-20
2021/12/27 23:16:54;;;;;;;0.57;0.13;;;;;;;16.99;54.45;95338.66;10406417;28;20036;-19
2021/12/27 23:21:55;;;;;;;0.83;0.40;;;;;;;16.98;54.78;95349.66;10394682;28;20041;-19
2021/12/27 23:26:56;;;;;;;2.15;0.20;;;;;;;16.97;54.76;95322.66;10403646;28;20037;-20